This is the latest recevied weather packets stored in our database for station/object HG8GL-6. If no packets are shown the sender has not sent any weather packets the latest 10 day(s).
| Time | Temp. | Humidity | Pressure | Rain* | Wind** | Luminosity | Snow |
|---|---|---|---|---|---|---|---|
| 1778160081 | 18.33° C | 88% | 1014 hPa | 0.25 mm | - | - | - |
| 1778159481 | 18.33° C | 88% | 1014 hPa | 0 mm | - | - | - |
| 1778158881 | 17.78° C | 88% | 1015 hPa | 0 mm | - | - | - |
| 1778158251 | 17.78° C | 88% | 1014 hPa | 0 mm | - | - | - |
| 1778157651 | 17.78° C | 88% | 1014 hPa | 0.51 mm | - | - | - |
| 1778157051 | 17.22° C | 87% | 1014 hPa | 0.76 mm | - | - | - |
| 1778156451 | 17.22° C | 86% | 1014 hPa | 1.27 mm | - | - | - |
| 1778155851 | 17.22° C | 86% | 1014.1 hPa | 2.03 mm | - | - | - |
| 1778155221 | 17.78° C | 86% | 1015 hPa | 2.03 mm | - | - | - |
| 1778154621 | 17.78° C | 86% | 1014 hPa | 2.03 mm | - | - | - |
| 1778153991 | 17.78° C | 83% | 1014 hPa | 1.52 mm | - | - | - |
| 1778153361 | 17.78° C | 83% | 1014 hPa | 3.81 mm | - | - | - |
| 1778152761 | 17.78° C | 83% | 1014 hPa | 3.3 mm | - | - | - |
| 1778152161 | 17.78° C | 82% | 1014 hPa | 3.05 mm | - | - | - |
| 1778151531 | 17.78° C | 80% | 1014 hPa | 3.56 mm | - | - | - |
| 1778150901 | 18.33° C | 77% | 1013 hPa | 3.56 mm | - | - | - |
| 1778150301 | 18.89° C | 77% | 1014 hPa | 3.56 mm | - | - | - |
| 1778149701 | 20° C | 74% | 1014 hPa | 1.02 mm | - | - | - |
| 1778149071 | 20.56° C | 69% | 1015 hPa | 0.76 mm | - | - | - |
| 1778148441 | 22.22° C | 59% | 1015 hPa | 0.25 mm | - | - | - |
| 1778147841 | 23.33° C | 57% | 1015 hPa | 0 mm | - | - | - |
| 1778147241 | 22.78° C | 60% | 1014 hPa | 0 mm | - | - | - |
| 1778146581 | 22.78° C | 60% | 1014 hPa | 0 mm | - | - | - |
| 1778145951 | 22.22° C | 63% | 1014 hPa | 0 mm | - | - | - |
| 1778145350 | 21.67° C | 65% | 1014 hPa | 0 mm | - | - | - |
* Rain latest hour (hover to see other rain measurements)
** Current wind speed in m/s (hover to see current wind gust speed)